sensor_id;sensor_type;location;lat;lon;timestamp;temperature;humidity
51637;DHT22;37713;53.254;6.460;2022-12-10T00:01:50;-2.70;99.90
51637;DHT22;37713;53.254;6.460;2022-12-10T00:04:16;-2.70;99.90
51637;DHT22;37713;53.254;6.460;2022-12-10T00:06:42;-2.90;99.90
51637;DHT22;37713;53.254;6.460;2022-12-10T00:09:14;-2.80;99.90
51637;DHT22;37713;53.254;6.460;2022-12-10T00:11:41;-2.80;99.90
51637;DHT22;37713;53.254;6.460;2022-12-10T00:14:07;-2.70;99.90
51637;DHT22;37713;53.254;6.460;2022-12-10T00:16:34;-2.70;99.90
51637;DHT22;37713;53.254;6.460;2022-12-10T00:19:00;-2.70;99.90
51637;DHT22;37713;53.254;6.460;2022-12-10T00:21:28;-2.90;99.90
51637;DHT22;37713;53.254;6.460;2022-12-10T00:23:55;-2.80;99.90
51637;DHT22;37713;53.254;6.460;2022-12-10T00:26:40;-2.70;99.90
51637;DHT22;37713;53.254;6.460;2022-12-10T00:29:09;-2.80;99.90
51637;DHT22;37713;53.254;6.460;2022-12-10T00:31:37;-2.80;99.90
51637;DHT22;37713;53.254;6.460;2022-12-10T00:34:04;-2.70;99.90
51637;DHT22;37713;53.254;6.460;2022-12-10T00:36:36;-2.80;99.90
51637;DHT22;37713;53.254;6.460;2022-12-10T00:39:03;-2.60;99.90
51637;DHT22;37713;53.254;6.460;2022-12-10T00:41:29;-2.60;99.90
51637;DHT22;37713;53.254;6.460;2022-12-10T00:43:55;-2.70;99.90
51637;DHT22;37713;53.254;6.460;2022-12-10T00:46:21;-2.80;99.90
51637;DHT22;37713;53.254;6.460;2022-12-10T00:48:46;-2.80;99.90
51637;DHT22;37713;53.254;6.460;2022-12-10T00:51:21;-2.90;99.90
51637;DHT22;37713;53.254;6.460;2022-12-10T00:53:48;-2.80;99.90
51637;DHT22;37713;53.254;6.460;2022-12-10T00:56:17;-2.80;99.90
51637;DHT22;37713;53.254;6.460;2022-12-10T00:58:43;-2.90;99.90
51637;DHT22;37713;53.254;6.460;2022-12-10T01:03:48;-2.90;99.90
51637;DHT22;37713;53.254;6.460;2022-12-10T01:06:23;-2.90;99.90
51637;DHT22;37713;53.254;6.460;2022-12-10T01:08:51;-3.00;99.90
51637;DHT22;37713;53.254;6.460;2022-12-10T01:11:18;-2.90;99.90
51637;DHT22;37713;53.254;6.460;2022-12-10T01:13:45;-2.90;99.90
51637;DHT22;37713;53.254;6.460;2022-12-10T01:16:13;-3.00;99.90
51637;DHT22;37713;53.254;6.460;2022-12-10T01:18:40;-2.90;99.90
51637;DHT22;37713;53.254;6.460;2022-12-10T01:21:11;-3.10;99.90
51637;DHT22;37713;53.254;6.460;2022-12-10T01:23:40;-3.00;99.90
51637;DHT22;37713;53.254;6.460;2022-12-10T01:26:09;-2.80;99.90
51637;DHT22;37713;53.254;6.460;2022-12-10T01:28:37;-2.80;99.90
51637;DHT22;37713;53.254;6.460;2022-12-10T01:31:09;-2.90;99.90
51637;DHT22;37713;53.254;6.460;2022-12-10T01:33:36;-2.90;99.90
51637;DHT22;37713;53.254;6.460;2022-12-10T01:36:23;-2.90;99.90
51637;DHT22;37713;53.254;6.460;2022-12-10T01:38:50;-2.80;99.90
51637;DHT22;37713;53.254;6.460;2022-12-10T01:41:22;-2.90;99.90
51637;DHT22;37713;53.254;6.460;2022-12-10T01:46:17;-2.90;99.90
51637;DHT22;37713;53.254;6.460;2022-12-10T01:48:43;-2.80;99.90
51637;DHT22;37713;53.254;6.460;2022-12-10T01:51:10;-2.80;99.90
51637;DHT22;37713;53.254;6.460;2022-12-10T01:53:37;-2.80;99.90
51637;DHT22;37713;53.254;6.460;2022-12-10T01:56:03;-2.80;99.90
51637;DHT22;37713;53.254;6.460;2022-12-10T01:58:29;-2.90;99.90
51637;DHT22;37713;53.254;6.460;2022-12-10T02:11:52;-2.80;99.90
51637;DHT22;37713;53.254;6.460;2022-12-10T02:17:32;-2.90;99.90
51637;DHT22;37713;53.254;6.460;2022-12-10T02:20:20;-2.90;99.90
51637;DHT22;37713;53.254;6.460;2022-12-10T02:23:01;-3.00;99.90
51637;DHT22;37713;53.254;6.460;2022-12-10T02:25:53;-2.90;99.90
51637;DHT22;37713;53.254;6.460;2022-12-10T02:31:26;-3.00;99.90
51637;DHT22;37713;53.254;6.460;2022-12-10T02:33:57;-3.00;99.90
51637;DHT22;37713;53.254;6.460;2022-12-10T02:36:27;-2.90;99.90
51637;DHT22;37713;53.254;6.460;2022-12-10T02:38:56;-3.00;99.90
51637;DHT22;37713;53.254;6.460;2022-12-10T02:41:28;-2.90;99.90
51637;DHT22;37713;53.254;6.460;2022-12-10T02:43:57;-2.90;99.90
51637;DHT22;37713;53.254;6.460;2022-12-10T02:46:25;-3.00;99.90
51637;DHT22;37713;53.254;6.460;2022-12-10T02:48:54;-2.90;99.90
51637;DHT22;37713;53.254;6.460;2022-12-10T02:51:20;-2.80;99.90
51637;DHT22;37713;53.254;6.460;2022-12-10T02:53:46;-2.80;99.90
51637;DHT22;37713;53.254;6.460;2022-12-10T03:01:41;-2.90;99.90
51637;DHT22;37713;53.254;6.460;2022-12-10T03:04:18;-2.90;99.90
51637;DHT22;37713;53.254;6.460;2022-12-10T03:06:57;-3.00;99.90
51637;DHT22;37713;53.254;6.460;2022-12-10T03:09:41;-2.90;99.90
51637;DHT22;37713;53.254;6.460;2022-12-10T03:12:29;-3.00;99.90
51637;DHT22;37713;53.254;6.460;2022-12-10T03:15:02;-2.90;99.90
51637;DHT22;37713;53.254;6.460;2022-12-10T03:17:30;-2.80;99.90
51637;DHT22;37713;53.254;6.460;2022-12-10T03:19:57;-2.90;99.90
51637;DHT22;37713;53.254;6.460;2022-12-10T03:22:24;-2.90;99.90
51637;DHT22;37713;53.254;6.460;2022-12-10T03:24:50;-2.80;99.90
51637;DHT22;37713;53.254;6.460;2022-12-10T03:27:19;-2.90;99.90
51637;DHT22;37713;53.254;6.460;2022-12-10T03:29:50;-2.90;99.90
51637;DHT22;37713;53.254;6.460;2022-12-10T03:32:18;-2.90;99.90
51637;DHT22;37713;53.254;6.460;2022-12-10T03:34:46;-2.80;99.90
51637;DHT22;37713;53.254;6.460;2022-12-10T03:37:13;-2.70;99.90
51637;DHT22;37713;53.254;6.460;2022-12-10T03:39:40;-2.60;99.90
51637;DHT22;37713;53.254;6.460;2022-12-10T03:42:06;-2.60;99.90
51637;DHT22;37713;53.254;6.460;2022-12-10T03:44:37;-2.70;99.90
51637;DHT22;37713;53.254;6.460;2022-12-10T03:47:04;-2.60;99.90
51637;DHT22;37713;53.254;6.460;2022-12-10T03:49:31;-2.60;99.90
51637;DHT22;37713;53.254;6.460;2022-12-10T03:51:56;-2.50;99.90
51637;DHT22;37713;53.254;6.460;2022-12-10T03:54:22;-2.50;99.90
51637;DHT22;37713;53.254;6.460;2022-12-10T03:56:48;-2.30;99.90
51637;DHT22;37713;53.254;6.460;2022-12-10T03:59:14;-2.40;99.90
51637;DHT22;37713;53.254;6.460;2022-12-10T04:01:40;-2.40;99.90
51637;DHT22;37713;53.254;6.460;2022-12-10T04:04:06;-2.30;99.90
51637;DHT22;37713;53.254;6.460;2022-12-10T04:06:32;-2.30;99.90
51637;DHT22;37713;53.254;6.460;2022-12-10T04:08:58;-2.20;99.90
51637;DHT22;37713;53.254;6.460;2022-12-10T04:11:24;-2.20;99.90
51637;DHT22;37713;53.254;6.460;2022-12-10T04:13:51;-2.20;99.90
51637;DHT22;37713;53.254;6.460;2022-12-10T04:16:36;-2.10;99.90
51637;DHT22;37713;53.254;6.460;2022-12-10T04:19:07;-2.10;99.90
51637;DHT22;37713;53.254;6.460;2022-12-10T04:21:36;-2.10;99.90
51637;DHT22;37713;53.254;6.460;2022-12-10T04:24:23;-2.10;99.90
51637;DHT22;37713;53.254;6.460;2022-12-10T04:27:31;-2.00;99.90
51637;DHT22;37713;53.254;6.460;2022-12-10T04:29:59;-2.10;99.90
51637;DHT22;37713;53.254;6.460;2022-12-10T04:32:26;-1.90;99.90
51637;DHT22;37713;53.254;6.460;2022-12-10T04:34:52;-1.90;99.90
51637;DHT22;37713;53.254;6.460;2022-12-10T04:37:18;-1.90;99.90
51637;DHT22;37713;53.254;6.460;2022-12-10T04:39:45;-1.60;99.90
51637;DHT22;37713;53.254;6.460;2022-12-10T04:42:11;-1.90;99.90
51637;DHT22;37713;53.254;6.460;2022-12-10T04:44:37;-1.80;99.90
51637;DHT22;37713;53.254;6.460;2022-12-10T04:47:04;-1.90;99.90
51637;DHT22;37713;53.254;6.460;2022-12-10T04:49:30;-1.90;99.90
51637;DHT22;37713;53.254;6.460;2022-12-10T04:51:56;-1.70;99.90
51637;DHT22;37713;53.254;6.460;2022-12-10T04:54:22;-1.60;99.90
51637;DHT22;37713;53.254;6.460;2022-12-10T04:56:48;-1.80;99.90
51637;DHT22;37713;53.254;6.460;2022-12-10T04:59:14;-1.70;99.90
51637;DHT22;37713;53.254;6.460;2022-12-10T05:01:40;-1.70;99.90
51637;DHT22;37713;53.254;6.460;2022-12-10T05:04:07;-1.70;99.90
51637;DHT22;37713;53.254;6.460;2022-12-10T05:06:34;-1.70;99.90
51637;DHT22;37713;53.254;6.460;2022-12-10T05:08:59;-1.70;99.90
51637;DHT22;37713;53.254;6.460;2022-12-10T05:11:27;-1.60;99.90
51637;DHT22;37713;53.254;6.460;2022-12-10T05:13:54;-1.50;99.90
51637;DHT22;37713;53.254;6.460;2022-12-10T05:16:21;-1.60;99.90
51637;DHT22;37713;53.254;6.460;2022-12-10T05:18:48;-1.70;99.90
51637;DHT22;37713;53.254;6.460;2022-12-10T05:21:16;-1.60;99.90
51637;DHT22;37713;53.254;6.460;2022-12-10T05:23:49;-1.50;99.90
51637;DHT22;37713;53.254;6.460;2022-12-10T05:26:21;-1.50;99.90
51637;DHT22;37713;53.254;6.460;2022-12-10T05:28:53;-1.60;99.90
51637;DHT22;37713;53.254;6.460;2022-12-10T05:31:24;-1.60;99.90
51637;DHT22;37713;53.254;6.460;2022-12-10T05:33:51;-1.60;99.90
51637;DHT22;37713;53.254;6.460;2022-12-10T05:36:20;-1.60;99.90
51637;DHT22;37713;53.254;6.460;2022-12-10T05:38:47;-1.70;99.90
51637;DHT22;37713;53.254;6.460;2022-12-10T05:41:16;-1.60;99.90
51637;DHT22;37713;53.254;6.460;2022-12-10T05:43:43;-1.50;99.90
51637;DHT22;37713;53.254;6.460;2022-12-10T05:46:15;-1.50;99.90
51637;DHT22;37713;53.254;6.460;2022-12-10T05:48:41;-1.50;99.90
51637;DHT22;37713;53.254;6.460;2022-12-10T05:51:09;-1.60;99.90
51637;DHT22;37713;53.254;6.460;2022-12-10T05:53:36;-1.50;99.90
51637;DHT22;37713;53.254;6.460;2022-12-10T05:56:03;-1.50;99.90
51637;DHT22;37713;53.254;6.460;2022-12-10T05:58:30;-1.60;99.90
51637;DHT22;37713;53.254;6.460;2022-12-10T06:00:57;-1.40;99.90
51637;DHT22;37713;53.254;6.460;2022-12-10T06:03:24;-1.40;99.90
51637;DHT22;37713;53.254;6.460;2022-12-10T06:05:50;-1.40;99.90
51637;DHT22;37713;53.254;6.460;2022-12-10T06:08:15;-1.60;99.90
51637;DHT22;37713;53.254;6.460;2022-12-10T06:10:41;-1.60;99.90
51637;DHT22;37713;53.254;6.460;2022-12-10T06:13:07;-1.50;99.90
51637;DHT22;37713;53.254;6.460;2022-12-10T06:15:32;-1.50;99.90
51637;DHT22;37713;53.254;6.460;2022-12-10T06:17:59;-1.50;99.90
51637;DHT22;37713;53.254;6.460;2022-12-10T06:20:25;-1.50;99.90
51637;DHT22;37713;53.254;6.460;2022-12-10T06:22:51;-1.50;99.90
51637;DHT22;37713;53.254;6.460;2022-12-10T06:25:18;-1.50;99.90
51637;DHT22;37713;53.254;6.460;2022-12-10T06:27:44;-1.60;99.90
51637;DHT22;37713;53.254;6.460;2022-12-10T06:30:10;-1.50;99.90
51637;DHT22;37713;53.254;6.460;2022-12-10T06:32:36;-1.50;99.90
51637;DHT22;37713;53.254;6.460;2022-12-10T06:35:02;-1.10;99.90
51637;DHT22;37713;53.254;6.460;2022-12-10T06:37:28;-1.40;99.90
51637;DHT22;37713;53.254;6.460;2022-12-10T06:39:54;-1.50;99.90
51637;DHT22;37713;53.254;6.460;2022-12-10T06:42:20;-1.50;99.90
51637;DHT22;37713;53.254;6.460;2022-12-10T06:44:46;-1.40;99.90
51637;DHT22;37713;53.254;6.460;2022-12-10T06:47:13;-1.40;99.90
51637;DHT22;37713;53.254;6.460;2022-12-10T06:49:39;-1.50;99.90
51637;DHT22;37713;53.254;6.460;2022-12-10T06:52:05;-1.40;99.90
51637;DHT22;37713;53.254;6.460;2022-12-10T06:54:31;-1.60;99.90
51637;DHT22;37713;53.254;6.460;2022-12-10T06:56:56;-1.50;99.90
51637;DHT22;37713;53.254;6.460;2022-12-10T06:59:23;-1.40;99.90
51637;DHT22;37713;53.254;6.460;2022-12-10T07:01:48;-1.30;99.90
51637;DHT22;37713;53.254;6.460;2022-12-10T07:04:15;-1.60;99.90
51637;DHT22;37713;53.254;6.460;2022-12-10T07:06:41;-1.60;99.90
51637;DHT22;37713;53.254;6.460;2022-12-10T07:09:06;-1.40;99.90
51637;DHT22;37713;53.254;6.460;2022-12-10T07:11:32;-1.40;99.90
51637;DHT22;37713;53.254;6.460;2022-12-10T07:13:59;-1.40;99.90
51637;DHT22;37713;53.254;6.460;2022-12-10T07:16:27;-1.50;99.90
51637;DHT22;37713;53.254;6.460;2022-12-10T07:18:54;-1.50;99.90
51637;DHT22;37713;53.254;6.460;2022-12-10T07:21:23;-1.60;99.90
51637;DHT22;37713;53.254;6.460;2022-12-10T07:23:54;-1.40;99.90
51637;DHT22;37713;53.254;6.460;2022-12-10T07:26:21;-1.40;99.90
51637;DHT22;37713;53.254;6.460;2022-12-10T07:28:47;-1.40;99.90
51637;DHT22;37713;53.254;6.460;2022-12-10T07:31:13;-1.50;99.90
51637;DHT22;37713;53.254;6.460;2022-12-10T07:33:39;-1.50;99.90
51637;DHT22;37713;53.254;6.460;2022-12-10T07:36:12;-1.50;99.90
51637;DHT22;37713;53.254;6.460;2022-12-10T07:38:40;-1.40;99.90
51637;DHT22;37713;53.254;6.460;2022-12-10T07:41:08;-1.50;99.90
51637;DHT22;37713;53.254;6.460;2022-12-10T07:43:39;-1.30;99.90
51637;DHT22;37713;53.254;6.460;2022-12-10T07:46:19;-1.30;99.90
51637;DHT22;37713;53.254;6.460;2022-12-10T07:48:46;-1.50;99.90
51637;DHT22;37713;53.254;6.460;2022-12-10T07:51:13;-1.50;99.90
51637;DHT22;37713;53.254;6.460;2022-12-10T07:53:39;-1.50;99.90
51637;DHT22;37713;53.254;6.460;2022-12-10T07:56:06;-1.40;99.90
51637;DHT22;37713;53.254;6.460;2022-12-10T07:58:32;-1.50;99.90
51637;DHT22;37713;53.254;6.460;2022-12-10T08:00:58;-1.50;99.90
51637;DHT22;37713;53.254;6.460;2022-12-10T08:03:24;-1.50;99.90
51637;DHT22;37713;53.254;6.460;2022-12-10T08:06:03;-1.50;99.90
51637;DHT22;37713;53.254;6.460;2022-12-10T08:08:29;-1.50;99.90
51637;DHT22;37713;53.254;6.460;2022-12-10T08:10:55;-1.40;99.90
51637;DHT22;37713;53.254;6.460;2022-12-10T08:13:24;-1.50;99.90
51637;DHT22;37713;53.254;6.460;2022-12-10T08:15:50;-1.50;99.90
51637;DHT22;37713;53.254;6.460;2022-12-10T08:18:16;-1.50;99.90
51637;DHT22;37713;53.254;6.460;2022-12-10T08:20:41;-1.50;99.90
51637;DHT22;37713;53.254;6.460;2022-12-10T08:23:07;-1.40;99.90
51637;DHT22;37713;53.254;6.460;2022-12-10T08:25:33;-1.20;99.90
51637;DHT22;37713;53.254;6.460;2022-12-10T08:27:58;-1.40;99.90
51637;DHT22;37713;53.254;6.460;2022-12-10T08:30:28;-1.30;99.90
51637;DHT22;37713;53.254;6.460;2022-12-10T08:32:54;-1.40;99.90
51637;DHT22;37713;53.254;6.460;2022-12-10T08:35:20;-1.50;99.90
51637;DHT22;37713;53.254;6.460;2022-12-10T08:37:45;-1.40;99.90
51637;DHT22;37713;53.254;6.460;2022-12-10T08:40:11;-1.40;99.90
51637;DHT22;37713;53.254;6.460;2022-12-10T08:42:38;-1.40;99.90
51637;DHT22;37713;53.254;6.460;2022-12-10T08:45:04;-1.30;99.90
51637;DHT22;37713;53.254;6.460;2022-12-10T08:47:30;-1.30;99.90
51637;DHT22;37713;53.254;6.460;2022-12-10T08:49:56;-1.30;99.90
51637;DHT22;37713;53.254;6.460;2022-12-10T08:52:22;-1.40;99.90
51637;DHT22;37713;53.254;6.460;2022-12-10T08:54:47;-1.40;99.90
51637;DHT22;37713;53.254;6.460;2022-12-10T08:57:13;-1.30;99.90
51637;DHT22;37713;53.254;6.460;2022-12-10T08:59:39;-1.40;99.90
51637;DHT22;37713;53.254;6.460;2022-12-10T09:02:05;-1.20;99.90
51637;DHT22;37713;53.254;6.460;2022-12-10T09:04:30;-1.30;99.90
51637;DHT22;37713;53.254;6.460;2022-12-10T09:06:56;-1.10;99.90
51637;DHT22;37713;53.254;6.460;2022-12-10T09:09:22;-1.20;99.90
51637;DHT22;37713;53.254;6.460;2022-12-10T09:11:48;-1.10;99.90
51637;DHT22;37713;53.254;6.460;2022-12-10T09:14:13;-1.00;99.90
51637;DHT22;37713;53.254;6.460;2022-12-10T09:16:39;-1.10;99.90
51637;DHT22;37713;53.254;6.460;2022-12-10T09:19:05;-1.00;99.90
51637;DHT22;37713;53.254;6.460;2022-12-10T09:21:32;-1.00;99.90
51637;DHT22;37713;53.254;6.460;2022-12-10T09:23:58;-0.90;99.90
51637;DHT22;37713;53.254;6.460;2022-12-10T09:26:24;-0.80;99.90
51637;DHT22;37713;53.254;6.460;2022-12-10T09:28:50;-0.70;99.90
51637;DHT22;37713;53.254;6.460;2022-12-10T09:31:18;-0.80;99.90
51637;DHT22;37713;53.254;6.460;2022-12-10T09:33:45;-0.70;99.90
51637;DHT22;37713;53.254;6.460;2022-12-10T09:36:12;-0.70;99.90
51637;DHT22;37713;53.254;6.460;2022-12-10T09:38:40;-0.70;99.90
51637;DHT22;37713;53.254;6.460;2022-12-10T09:46:56;-0.80;99.90
51637;DHT22;37713;53.254;6.460;2022-12-10T09:49:32;-0.80;99.90
51637;DHT22;37713;53.254;6.460;2022-12-10T09:52:03;-0.80;99.90
51637;DHT22;37713;53.254;6.460;2022-12-10T09:54:33;-0.80;99.90
51637;DHT22;37713;53.254;6.460;2022-12-10T09:57:00;-0.90;99.90
51637;DHT22;37713;53.254;6.460;2022-12-10T09:59:32;-1.00;99.90
51637;DHT22;37713;53.254;6.460;2022-12-10T10:04:43;-0.90;99.90
51637;DHT22;37713;53.254;6.460;2022-12-10T10:07:24;-1.00;99.90
51637;DHT22;37713;53.254;6.460;2022-12-10T10:09:55;-1.00;99.90
51637;DHT22;37713;53.254;6.460;2022-12-10T10:12:21;-1.00;99.90
51637;DHT22;37713;53.254;6.460;2022-12-10T10:14:47;-0.90;99.90
51637;DHT22;37713;53.254;6.460;2022-12-10T10:17:34;-0.80;99.90
51637;DHT22;37713;53.254;6.460;2022-12-10T10:20:01;-0.80;99.90
51637;DHT22;37713;53.254;6.460;2022-12-10T10:22:27;-0.90;99.90
51637;DHT22;37713;53.254;6.460;2022-12-10T10:24:53;-0.90;99.90
51637;DHT22;37713;53.254;6.460;2022-12-10T10:27:24;-0.80;99.90
51637;DHT22;37713;53.254;6.460;2022-12-10T10:29:53;-0.80;99.90
51637;DHT22;37713;53.254;6.460;2022-12-10T10:32:25;-0.80;99.90
51637;DHT22;37713;53.254;6.460;2022-12-10T10:34:57;-0.90;99.90
51637;DHT22;37713;53.254;6.460;2022-12-10T10:37:27;-0.60;99.90
51637;DHT22;37713;53.254;6.460;2022-12-10T10:39:57;-0.80;99.90
51637;DHT22;37713;53.254;6.460;2022-12-10T10:44:58;-0.60;99.90
51637;DHT22;37713;53.254;6.460;2022-12-10T10:47:33;-0.30;99.90
51637;DHT22;37713;53.254;6.460;2022-12-10T10:49:59;-0.50;99.90
51637;DHT22;37713;53.254;6.460;2022-12-10T10:52:32;-0.60;99.90
51637;DHT22;37713;53.254;6.460;2022-12-10T10:55:00;-0.60;99.90
51637;DHT22;37713;53.254;6.460;2022-12-10T10:57:34;-0.50;99.90
51637;DHT22;37713;53.254;6.460;2022-12-10T11:00:22;-0.50;99.90
51637;DHT22;37713;53.254;6.460;2022-12-10T11:02:48;-0.50;99.90
51637;DHT22;37713;53.254;6.460;2022-12-10T11:05:22;-0.60;99.90
51637;DHT22;37713;53.254;6.460;2022-12-10T11:08:00;-0.50;99.90
51637;DHT22;37713;53.254;6.460;2022-12-10T11:10:27;-0.50;99.90
51637;DHT22;37713;53.254;6.460;2022-12-10T11:12:57;-0.40;99.90
51637;DHT22;37713;53.254;6.460;2022-12-10T11:15:40;-0.50;99.90
51637;DHT22;37713;53.254;6.460;2022-12-10T11:23:39;-0.40;99.90
51637;DHT22;37713;53.254;6.460;2022-12-10T11:29:15;-0.50;99.90
51637;DHT22;37713;53.254;6.460;2022-12-10T11:35:10;-0.40;99.90
51637;DHT22;37713;53.254;6.460;2022-12-10T11:46:25;-0.40;99.90
51637;DHT22;37713;53.254;6.460;2022-12-10T11:49:06;-0.40;99.90
51637;DHT22;37713;53.254;6.460;2022-12-10T12:02:38;-0.30;99.90
51637;DHT22;37713;53.254;6.460;2022-12-10T12:08:44;-0.40;99.90
51637;DHT22;37713;53.254;6.460;2022-12-10T12:14:13;-0.40;99.90
51637;DHT22;37713;53.254;6.460;2022-12-10T12:16:46;-0.40;99.90
51637;DHT22;37713;53.254;6.460;2022-12-10T12:19:17;-0.30;99.90
51637;DHT22;37713;53.254;6.460;2022-12-10T12:21:47;-0.20;99.90
51637;DHT22;37713;53.254;6.460;2022-12-10T12:24:25;-0.30;99.90
51637;DHT22;37713;53.254;6.460;2022-12-10T12:27:00;-0.30;99.90
51637;DHT22;37713;53.254;6.460;2022-12-10T12:29:34;-0.10;99.90
51637;DHT22;37713;53.254;6.460;2022-12-10T12:32:04;-0.30;99.90
51637;DHT22;37713;53.254;6.460;2022-12-10T12:35:10;-0.10;99.90
51637;DHT22;37713;53.254;6.460;2022-12-10T12:37:35;-0.20;99.90
51637;DHT22;37713;53.254;6.460;2022-12-10T12:42:35;0.30;99.90
51637;DHT22;37713;53.254;6.460;2022-12-10T12:45:17;-0.10;99.90
51637;DHT22;37713;53.254;6.460;2022-12-10T12:48:00;-0.10;99.90
51637;DHT22;37713;53.254;6.460;2022-12-10T12:51:05;0.00;99.90
51637;DHT22;37713;53.254;6.460;2022-12-10T12:53:28;0.00;99.90
51637;DHT22;37713;53.254;6.460;2022-12-10T13:01:20;0.00;99.90
51637;DHT22;37713;53.254;6.460;2022-12-10T13:03:48;-0.10;99.90
51637;DHT22;37713;53.254;6.460;2022-12-10T13:06:29;-0.10;99.90
51637;DHT22;37713;53.254;6.460;2022-12-10T13:11:37;-0.10;99.90
51637;DHT22;37713;53.254;6.460;2022-12-10T13:30:02;-0.10;99.90
51637;DHT22;37713;53.254;6.460;2022-12-10T13:46:33;-0.10;99.90
51637;DHT22;37713;53.254;6.460;2022-12-10T13:49:04;-0.10;99.90
51637;DHT22;37713;53.254;6.460;2022-12-10T13:54:58;-0.10;99.90
51637;DHT22;37713;53.254;6.460;2022-12-10T13:57:37;0.00;99.90
51637;DHT22;37713;53.254;6.460;2022-12-10T14:00:15;0.00;99.90
51637;DHT22;37713;53.254;6.460;2022-12-10T14:06:18;-0.40;99.90
51637;DHT22;37713;53.254;6.460;2022-12-10T14:12:05;-0.20;99.90
51637;DHT22;37713;53.254;6.460;2022-12-10T14:14:35;-0.10;99.90
51637;DHT22;37713;53.254;6.460;2022-12-10T14:17:02;-0.20;99.90
51637;DHT22;37713;53.254;6.460;2022-12-10T14:19:29;-0.10;99.90
51637;DHT22;37713;53.254;6.460;2022-12-10T14:21:55;-0.20;99.90
51637;DHT22;37713;53.254;6.460;2022-12-10T14:24:34;0.00;99.90
51637;DHT22;37713;53.254;6.460;2022-12-10T14:27:15;-0.10;99.90
51637;DHT22;37713;53.254;6.460;2022-12-10T14:29:45;0.00;99.90
51637;DHT22;37713;53.254;6.460;2022-12-10T14:32:18;0.00;99.90
51637;DHT22;37713;53.254;6.460;2022-12-10T14:34:52;-0.10;99.90
51637;DHT22;37713;53.254;6.460;2022-12-10T14:37:24;-0.10;99.90
51637;DHT22;37713;53.254;6.460;2022-12-10T14:39:52;0.00;99.90
51637;DHT22;37713;53.254;6.460;2022-12-10T14:42:18;-0.10;99.90
51637;DHT22;37713;53.254;6.460;2022-12-10T14:44:44;-0.30;99.90
51637;DHT22;37713;53.254;6.460;2022-12-10T14:47:18;-0.20;99.90
51637;DHT22;37713;53.254;6.460;2022-12-10T14:49:47;0.00;99.90
51637;DHT22;37713;53.254;6.460;2022-12-10T14:52:20;0.00;99.90
51637;DHT22;37713;53.254;6.460;2022-12-10T14:54:46;0.00;99.90
51637;DHT22;37713;53.254;6.460;2022-12-10T14:57:25;0.00;99.90
51637;DHT22;37713;53.254;6.460;2022-12-10T15:02:44;-0.10;99.90
51637;DHT22;37713;53.254;6.460;2022-12-10T15:05:21;-0.20;99.90
51637;DHT22;37713;53.254;6.460;2022-12-10T15:07:55;-0.10;99.90
51637;DHT22;37713;53.254;6.460;2022-12-10T15:10:37;-0.20;99.90
51637;DHT22;37713;53.254;6.460;2022-12-10T15:13:05;-0.10;99.90
51637;DHT22;37713;53.254;6.460;2022-12-10T15:15:36;0.00;99.90
51637;DHT22;37713;53.254;6.460;2022-12-10T15:18:11;0.20;99.90
51637;DHT22;37713;53.254;6.460;2022-12-10T15:20:50;0.00;99.90
51637;DHT22;37713;53.254;6.460;2022-12-10T15:23:30;0.00;99.90
51637;DHT22;37713;53.254;6.460;2022-12-10T15:28:33;-0.20;99.90
51637;DHT22;37713;53.254;6.460;2022-12-10T15:31:41;-0.10;99.90
51637;DHT22;37713;53.254;6.460;2022-12-10T15:34:11;-0.20;99.90
51637;DHT22;37713;53.254;6.460;2022-12-10T15:44:38;-0.20;99.90
51637;DHT22;37713;53.254;6.460;2022-12-10T15:49:40;-0.10;99.90
51637;DHT22;37713;53.254;6.460;2022-12-10T15:52:08;-0.20;99.90
51637;DHT22;37713;53.254;6.460;2022-12-10T15:54:38;-0.20;99.90
51637;DHT22;37713;53.254;6.460;2022-12-10T15:57:25;-0.10;99.90
51637;DHT22;37713;53.254;6.460;2022-12-10T15:59:53;-0.10;99.90
51637;DHT22;37713;53.254;6.460;2022-12-10T16:04:52;-0.20;99.90
51637;DHT22;37713;53.254;6.460;2022-12-10T16:07:17;-0.20;99.90
51637;DHT22;37713;53.254;6.460;2022-12-10T16:09:45;-0.10;99.90
51637;DHT22;37713;53.254;6.460;2022-12-10T16:12:12;-0.10;99.90
51637;DHT22;37713;53.254;6.460;2022-12-10T16:14:49;0.00;99.90
51637;DHT22;37713;53.254;6.460;2022-12-10T16:17:16;-0.20;99.90
51637;DHT22;37713;53.254;6.460;2022-12-10T16:19:42;-0.10;99.90
51637;DHT22;37713;53.254;6.460;2022-12-10T16:22:08;0.10;99.90
51637;DHT22;37713;53.254;6.460;2022-12-10T16:24:34;-0.10;99.90
51637;DHT22;37713;53.254;6.460;2022-12-10T16:27:00;-0.20;99.90
51637;DHT22;37713;53.254;6.460;2022-12-10T16:29:26;-0.20;99.90
51637;DHT22;37713;53.254;6.460;2022-12-10T16:31:51;-0.20;99.90
51637;DHT22;37713;53.254;6.460;2022-12-10T16:34:17;-0.20;99.90
51637;DHT22;37713;53.254;6.460;2022-12-10T16:36:43;-0.20;99.90
51637;DHT22;37713;53.254;6.460;2022-12-10T16:39:09;-0.30;99.90
51637;DHT22;37713;53.254;6.460;2022-12-10T16:41:35;-0.20;99.90
51637;DHT22;37713;53.254;6.460;2022-12-10T16:44:00;-0.10;99.90
51637;DHT22;37713;53.254;6.460;2022-12-10T16:46:26;-0.20;99.90
51637;DHT22;37713;53.254;6.460;2022-12-10T16:48:52;-0.10;99.90
51637;DHT22;37713;53.254;6.460;2022-12-10T16:51:23;-0.10;99.90
51637;DHT22;37713;53.254;6.460;2022-12-10T16:53:49;-0.30;99.90
51637;DHT22;37713;53.254;6.460;2022-12-10T16:56:16;-0.20;99.90
51637;DHT22;37713;53.254;6.460;2022-12-10T16:58:42;-0.30;99.90
51637;DHT22;37713;53.254;6.460;2022-12-10T17:01:24;-0.20;99.90
51637;DHT22;37713;53.254;6.460;2022-12-10T17:03:53;-0.30;99.90
51637;DHT22;37713;53.254;6.460;2022-12-10T17:06:21;-0.40;99.90
51637;DHT22;37713;53.254;6.460;2022-12-10T17:08:47;-0.20;99.90
51637;DHT22;37713;53.254;6.460;2022-12-10T17:11:18;-0.10;99.90
51637;DHT22;37713;53.254;6.460;2022-12-10T17:14:05;-0.30;99.90
51637;DHT22;37713;53.254;6.460;2022-12-10T17:16:31;-0.30;99.90
51637;DHT22;37713;53.254;6.460;2022-12-10T17:18:57;-0.30;99.90
51637;DHT22;37713;53.254;6.460;2022-12-10T17:21:23;-0.30;99.90
51637;DHT22;37713;53.254;6.460;2022-12-10T17:23:49;-0.20;99.90
51637;DHT22;37713;53.254;6.460;2022-12-10T17:26:23;-0.20;99.90
51637;DHT22;37713;53.254;6.460;2022-12-10T17:28:51;-0.40;99.90
51637;DHT22;37713;53.254;6.460;2022-12-10T17:31:17;-0.20;99.90
51637;DHT22;37713;53.254;6.460;2022-12-10T17:33:42;-0.40;99.90
51637;DHT22;37713;53.254;6.460;2022-12-10T17:36:09;-0.30;99.90
51637;DHT22;37713;53.254;6.460;2022-12-10T17:38:36;-0.20;99.90
51637;DHT22;37713;53.254;6.460;2022-12-10T17:41:02;-0.20;99.90
51637;DHT22;37713;53.254;6.460;2022-12-10T17:43:28;-0.40;99.90
51637;DHT22;37713;53.254;6.460;2022-12-10T17:45:56;-0.30;99.90
51637;DHT22;37713;53.254;6.460;2022-12-10T17:48:22;-0.20;99.90
51637;DHT22;37713;53.254;6.460;2022-12-10T17:50:48;-0.40;99.90
51637;DHT22;37713;53.254;6.460;2022-12-10T17:53:14;-0.30;99.90
51637;DHT22;37713;53.254;6.460;2022-12-10T17:55:45;-0.30;99.90
51637;DHT22;37713;53.254;6.460;2022-12-10T17:58:12;-0.30;99.90
51637;DHT22;37713;53.254;6.460;2022-12-10T18:00:39;-0.30;99.90
51637;DHT22;37713;53.254;6.460;2022-12-10T18:03:05;-0.40;99.90
51637;DHT22;37713;53.254;6.460;2022-12-10T18:05:31;-0.30;99.90
51637;DHT22;37713;53.254;6.460;2022-12-10T18:07:57;-0.40;99.90
51637;DHT22;37713;53.254;6.460;2022-12-10T18:10:26;-0.50;99.90
51637;DHT22;37713;53.254;6.460;2022-12-10T18:12:52;-0.40;99.90